Historique des mesures à Cassis (13260), France
Quotidien Résumé Mars 18, 2017 Unités:  Métrique    US   Métrique/US
« Précédent (Jour)
Suivant (Jour) »
Quotidien Hebdomadaire Mensuel Annuel Période au choix
  Maximum: Minimum: Moyenne:
Température: TemperatureC °C 11.8 °C 14.8 °C
Point de rosée: DewpointC °C 6.9 °C 8 °C
Humidité: Humidity % 46 % 61 %
Vitesse du vent: 0 km/h 0 km/h 20.6 km/h
Rafales: 0 km/h - -
Vent:- - SSW
Pression: PressurehPa hPa 1008.7 hPa -
Précipitations: 0.0 mm    
Historical Graphs
 
 
Mesures pour : Mars 18, 2017
Heure Temperature Point de rosée Pression Vent Vitesse du vent Rafales Humidité Pluie (par heure) Conditions
TemperatureC °C DewpointC °C PressurehPa hPa Calm     Humidity % HourlyPrecipMM mm SoftwareType W/m2
00:11 12.7 °C 8.2 °C 1014.4 hPa NW 4.2 km/h 5.1 km/h 74 % 0.0 mm open2300-1.11 W/m2
01:10 13.4 °C 9.2 °C 1014.4 hPa North 7.6 km/h 12.7 km/h 76 % 0.0 mm open2300-1.11 W/m2
02:11 13.2 °C 9.0 °C 1014.1 hPa Calm   8.9 km/h 76 % 0.0 mm open2300-1.11 W/m2
03:10 12.6 °C 8.4 °C 1013.8 hPa Calm   2.9 km/h 76 % 0.0 mm open2300-1.11 W/m2
04:11 12.8 °C 8.8 °C 1013.8 hPa Calm   5.1 km/h 77 % 0.0 mm open2300-1.11 W/m2
05:10 12.4 °C 8.4 °C 1013.8 hPa Calm     77 % 0.0 mm open2300-1.11 W/m2
06:11 11.8 °C 8.3 °C 1013.4 hPa Calm   5.1 km/h 79 % 0.0 mm open2300-1.11 W/m2
07:10 13.9 °C 8.5 °C 1013.4 hPa WNW 10.9 km/h 14.5 km/h 70 % 0.0 mm open2300-1.11 W/m2
08:11 14.2 °C 7.9 °C 1013.8 hPa NNW 5.6 km/h 20.3 km/h 66 % 0.0 mm open2300-1.11 W/m2
09:10 15.0 °C 8.0 °C 1013.4 hPa North 19.2 km/h 27.2 km/h 63 % 0.0 mm open2300-1.11 W/m2
10:11 15.4 °C 8.8 °C 1013.8 hPa West 7.6 km/h 17.9 km/h 65 % 0.0 mm open2300-1.11 W/m2
11:10 16.4 °C 8.9 °C 1013.8 hPa North 15 km/h 22.5 km/h 61 % 0.0 mm open2300-1.11 W/m2
12:11 17.0 °C 8.1 °C 1013.4 hPa NW 36.5 km/h 36.5 km/h 56 % 0.0 mm open2300-1.11 W/m2
13:10 17.4 °C 7.9 °C 1013.1 hPa NNE 17.9 km/h 43.5 km/h 54 % 0.0 mm open2300-1.11 W/m2
14:11 17.0 °C 9.2 °C 1012.4 hPa NW 33.6 km/h 47.3 km/h 60 % 0.0 mm open2300-1.11 W/m2
15:10 17.6 °C 8.7 °C 1011.7 hPa WNW 32.3 km/h 44.6 km/h 56 % 0.0 mm open2300-1.11 W/m2
17:10 18.8 °C 6.9 °C 1010.7 hPa NW 77.1 km/h 77.1 km/h 46 % 0.0 mm open2300-1.11 W/m2
18:11 18.5 °C 7.9 °C 1010.0 hPa NNW 30.1 km/h 54.4 km/h 50 % 0.0 mm open2300-1.11 W/m2
19:10 17.8 °C 8.3 °C 1010.4 hPa NW 38.3 km/h 74.8 km/h 54 % 0.0 mm open2300-1.11 W/m2
20:11 17.2 °C 8.1 °C 1009.7 hPa NW 37 km/h 102 km/h 55 % 0.0 mm open2300-1.11 W/m2
21:10 16.9 °C 7.8 °C 1008.7 hPa North 33.6 km/h 57.3 km/h 55 % 0.0 mm open2300-1.11 W/m2
22:11 17.2 °C 8.1 °C 1009.4 hPa NNE 53.3 km/h 53.3 km/h 55 % 0.0 mm open2300-1.11 W/m2
23:10 16.8 °C 7.9 °C 1010.4 hPa WNW 35.2 km/h 35.2 km/h 56 % 0.0 mm open2300-1.11 W/m2
Observations météo à CASSIS
WU-History script by Weather Underground - 1 mb